Flight Track Log - Related Links

Times and Time Zones

All times are in EDT time to prevent confusion due to time zone crossing. See the UAL118 flight status page for this flight to view local times or setup timezone preferences in your user account.

Time Position Orientation Groundspeed Altitude Reporting Facility
EDT Latitude Longitude Course Direction KTS MPH feet Rate Location/Type
Thu 03:11:18 50.0170 8.5080 249° West 157 181 3,800  Level FlightAware ADS-B
Thu 03:11:33 50.0170 8.4900 270° West 169 194 4,200 1,500 Climbing FlightAware ADS-B
Thu 03:11:58 50.0220 8.4570 283° West 199 229 4,800 1,200 Climbing FlightAware ADS-B
Thu 03:12:28 50.0180 8.4120 262° West 228 262 5,300 1,000 Climbing FlightAware ADS-B
Thu 03:12:58 50.0120 8.3700 257° West 233 268 5,800 1,418 Climbing FlightAware ADS-B
Thu 03:13:23 50.0060 8.3200 259° West 256 295 6,600 1,500 Climbing FlightAware ADS-B
Thu 03:13:38 50.0040 8.3000 261° West 273 314 6,800 1,200 Climbing FlightAware ADS-B
Thu 03:14:03 50.0110 8.2460 281° West 309 356 7,400 1,733 Climbing FlightAware ADS-B
Thu 03:14:23 50.0230 8.2060 295° West 318 366 8,100 2,600 Climbing FlightAware ADS-B
Thu 03:15:03 50.0530 8.1140 297° West 337 388 10,000 2,700 Climbing FlightAware ADS-B
Thu 03:15:43 50.0900 8.0370 307° West 340 391 11,700 2,118 Climbing FlightAware ADS-B
Thu 03:16:28 50.1360 7.9480 309° West 347 399 13,000 1,835 Climbing FlightAware ADS-B
Thu 03:17:08 50.1770 7.8690 309° West 350 403 14,300 2,175 Climbing FlightAware ADS-B
Thu 03:17:48 50.2190 7.7890 309° West 362 417 15,900 2,259 Climbing FlightAware ADS-B
Thu 03:18:33 50.2780 7.7130 321° Northwest 391 450 17,500 2,118 Climbing FlightAware ADS-B
Thu 03:19:13 50.3460 7.6660 336° Northwest 400 460 18,900 1,906 Climbing FlightAware ADS-B
Thu 03:19:58 50.4230 7.6150 337° Northwest 408 470 20,200 1,835 Climbing FlightAware ADS-B
Thu 03:20:38 50.4920 7.5660 336° Northwest 412 474 21,500 1,725 Climbing FlightAware ADS-B
Thu 03:21:18 50.5570 7.5110 332° Northwest 413 475 22,500 1,624 Climbing FlightAware ADS-B
Thu 03:22:03 50.6370 7.4400 331° Northwest 426 490 23,800 1,694 Climbing FlightAware ADS-B
Thu 03:22:43 50.7040 7.3800 330° Northwest 423 487 24,900 1,553 Climbing FlightAware ADS-B
Thu 03:23:28 50.7780 7.2980 325° Northwest 417 480 26,000 1,341 Climbing FlightAware ADS-B
Thu 03:24:08 50.8240 7.2030 307° West 416 479 26,800 1,275 Climbing FlightAware ADS-B
Thu 03:24:48 50.8690 7.0970 304° West 424 488 27,700 1,694 Climbing FlightAware ADS-B
Thu 03:25:33 50.9180 6.9800 304° West 415 478 29,200 1,765 Climbing FlightAware ADS-B
Thu 03:26:13 50.9570 6.8860 303° West 415 478 30,200 1,553 Climbing FlightAware ADS-B
Thu 03:26:58 51.0060 6.7680 303° West 413 475 31,400 1,553 Climbing FlightAware ADS-B
Thu 03:27:38 51.0480 6.6650 303° West 410 472 32,400 1,425 Climbing FlightAware ADS-B
Thu 03:28:18 51.0900 6.5630 303° West 409 471 33,300 1,412 Climbing FlightAware ADS-B
Thu 03:29:03 51.1340 6.4540 303° West 397 457 34,400 1,271 Climbing FlightAware ADS-B
Thu 03:29:43 51.1760 6.3520 303° West 402 463 35,100 900 Climbing FlightAware ADS-B
Thu 03:30:23 51.2160 6.2550 303° West 404 465 35,600 635 Climbing FlightAware ADS-B
Thu 03:31:08 51.2630 6.1360 302° West 408 470 36,000 282 Climbing FlightAware ADS-B
Thu 03:31:48 51.3030 6.0380 303° West 406 467 36,000  Level FlightAware ADS-B
Thu 03:32:33 51.3480 5.9270 303° West 403 464 36,000  Level FlightAware ADS-B
Thu 03:33:13 51.3890 5.8230 302° West 402 463 36,000  Level FlightAware ADS-B
Thu 03:33:53 51.4270 5.7280 303° West 402 463 36,000  Level FlightAware ADS-B
Thu 03:34:38 51.4720 5.6140 302° West 402 463 36,000  Level FlightAware ADS-B
Thu 03:35:18 51.5140 5.5070 302° West 401 461 36,000 -1,304 Level FlightAware ADS-B
Thu 03:35:47 51.5469 5.4254 302° West 454 522 34,500  Descending FlightAware UK
Thu 03:36:03 51.5570 5.3980 302° West 403 464 36,000  Climbing FlightAware ADS-B
Thu 03:36:23 51.5850 5.3371 302° West 456 525 34,500 -2,368 Descending FlightAware UK
Thu 03:36:41 51.6031 5.2920 303° West 456 525 34,500 4,500 Level FlightAware UK
Thu 03:36:43 51.5960 5.2970 303° West 403 464 36,000  Climbing FlightAware ADS-B
Thu 03:37:17 51.6405 5.2026 303° West 458 527 34,500  Descending FlightAware UK
Thu 03:37:23 51.6350 5.1980 303° West 404 465 36,000 1,765 Climbing FlightAware ADS-B
Thu 03:38:08 51.6800 5.0800 302° West 403 464 36,000  Level FlightAware ADS-B
Thu 03:38:48 51.7210 4.9760 303° West 403 464 36,000 -1,429 Level FlightAware ADS-B
Thu 03:39:11 51.7508 4.9110 303° West 456 525 34,500  Descending FlightAware UK
Thu 03:39:33 51.7680 4.8640 303° West 413 475 36,000  Climbing FlightAware ADS-B
Thu 03:39:59 51.8066 4.7974 303° West 456 525 34,500  Descending FlightAware UK
Thu 03:40:13 51.8230 4.7840 303° West 419 482 36,000  Climbing FlightAware ADS-B
Thu 03:40:29 51.8555 4.7421 303° West 454 522 34,500 -2,250 Descending FlightAware UK
Thu 03:40:53 51.8926 4.6956 322° Northwest 456 525 34,500 3,750 Level FlightAware UK
Thu 03:40:53 51.8840 4.6980 322° Northwest 417 480 36,000  Climbing FlightAware ADS-B
Thu 03:41:35 51.9535 4.6087 322° Northwest 458 527 34,500  Descending FlightAware UK
Thu 03:41:38 51.9500 4.6020 322° Northwest 418 481 36,000  Climbing FlightAware ADS-B
Thu 03:41:53 51.9796 4.5711 322° Northwest 460 529 34,500  Descending FlightAware UK
Thu 03:42:18 52.0050 4.5220 322° Northwest 417 480 36,000  Climbing FlightAware ADS-B
Thu 03:42:35 52.0399 4.4833 322° Northwest 458 527 34,500  Descending FlightAware UK
Thu 03:42:58 52.0620 4.4380 322° Northwest 416 479 36,000  Climbing FlightAware ADS-B
Thu 03:43:23 52.1071 4.3827 322° Northwest 458 527 34,500  Descending FlightAware UK
Thu 03:43:43 52.1260 4.3430 322° Northwest 416 479 36,000  Climbing FlightAware ADS-B
Thu 03:44:23 52.1928 4.2571 322° Northwest 458 527 34,500  Descending FlightAware UK
Thu 03:44:23 52.1840 4.2580 322° Northwest 416 479 36,000 2,000 Climbing FlightAware ADS-B
Thu 03:45:08 52.2450 4.1690 318° Northwest 418 481 36,000 -1,364 Level FlightAware ADS-B
Thu 03:45:29 52.2867 4.1183 318° Northwest 456 525 34,500  Descending FlightAware UK
Thu 03:45:48 52.3060 4.0790 318° Northwest 419 482 36,000  Climbing FlightAware ADS-B
Thu 03:46:05 52.3381 4.0423 318° Northwest 456 525 34,500  Descending FlightAware UK
Thu 03:46:23 52.3550 4.0060 318° Northwest 419 482 36,000  Climbing FlightAware ADS-B
Thu 03:46:53 52.4071 3.9403 318° Northwest 456 525 34,500  Descending FlightAware UK
Thu 03:47:03 52.4140 3.9180 318° Northwest 419 482 36,000  Climbing FlightAware ADS-B
Thu 03:47:35 52.4672 3.8504 318° Northwest 458 527 34,500  Descending FlightAware UK
Thu 03:47:48 52.4760 3.8260 318° Northwest 420 483 36,000  Climbing FlightAware ADS-B
Thu 03:48:05 52.5098 3.7859 318° Northwest 458 527 34,500  Descending FlightAware UK
Thu 03:48:28 52.5360 3.7350 318° Northwest 421 484 36,000  Climbing FlightAware ADS-B
Thu 03:48:53 52.5788 3.6826 318° Northwest 458 527 34,500  Descending FlightAware UK
Thu 03:49:13 52.5990 3.6410 318° Northwest 421 484 36,000  Climbing FlightAware ADS-B
Thu 03:49:29 52.6303 3.6049 318° Northwest 458 527 34,500 -2,647 Descending FlightAware UK
Thu 03:49:47 52.6555 3.5653 316° Northwest 458 527 34,500 3,750 Level FlightAware UK
Thu 03:49:53 52.6550 3.5520 316° Northwest 417 480 36,000  Climbing FlightAware ADS-B
Thu 03:50:11 52.6845 3.5056 316° Northwest 458 527 34,500 -2,500 Descending FlightAware UK
Thu 03:50:29 52.7025 3.4584 302° West 458 527 34,500 3,333 Level FlightAware UK
Thu 03:50:38 52.7040 3.4340 302° West 408 470 36,000  Climbing FlightAware ADS-B
Thu 03:51:11 52.7406 3.3450 302° West 458 527 34,500  Descending FlightAware UK
Thu 03:51:18 52.7410 3.3260 302° West 409 471 36,000  Climbing FlightAware ADS-B
Thu 03:51:35 52.7621 3.2798 302° West 458 527 34,500  Descending FlightAware UK
Thu 03:51:48 52.7680 3.2450 302° West 409 471 36,000  Climbing FlightAware ADS-B
Thu 03:52:11 52.7947 3.1816 302° West 458 527 34,500  Descending FlightAware UK
Thu 03:52:28 52.8040 3.1360 302° West 409 471 36,000  Climbing FlightAware ADS-B
Thu 03:52:59 52.8374 3.0497 302° West 458 527 34,500  Descending FlightAware UK
Thu 03:53:08 52.8380 3.0240 302° West 406 467 36,000  Climbing FlightAware ADS-B
Thu 03:53:23 52.8539 2.9806 302° West 456 525 34,500 -2,308 Descending FlightAware UK
Thu 03:53:47 52.8686 2.9106 289° West 452 520 34,500 2,813 Level FlightAware UK
Thu 03:53:55 52.8680 2.8840 289° West 404 465 36,000  Climbing FlightAware ADS-B
Thu 03:54:11 52.8825 2.8406 289° West 454 522 34,500 -2,647 Descending FlightAware UK
Thu 03:54:29 52.8931 2.7892 289° West 452 520 34,500 4,091 Level FlightAware UK
Thu 03:54:33 52.8900 2.7770 289° West 406 467 36,000  Climbing FlightAware ADS-B
Thu 03:54:52 52.9069 2.7194 289° West 456 525 34,500 -2,432 Descending FlightAware UK
Thu 03:55:10 52.9170 2.6659 287° West 454 522 34,500 4,286 Level FlightAware UK
Thu 03:55:13 52.9130 2.6590 287° West 407 468 36,000  Climbing FlightAware ADS-B
Thu 03:55:46 52.9375 2.5587 287° West 458 527 34,500  Descending FlightAware UK
Thu 03:55:58 52.9380 2.5270 287° West 408 470 36,000  Climbing FlightAware ADS-B
Thu 03:56:22 52.9577 2.4510 287° West 458 527 34,500  Descending FlightAware UK
Thu 03:56:38 52.9610 2.4040 287° West 410 472 36,000  Climbing FlightAware ADS-B
Thu 03:56:58 52.9781 2.3431 287° West 460 529 34,500 -2,368 Descending FlightAware UK
Thu 03:57:16 52.9880 2.2898 287° West 460 529 34,500 4,500 Level FlightAware UK
Thu 03:57:18 52.9840 2.2830 287° West 410 472 36,000  Climbing FlightAware ADS-B
Thu 03:57:34 52.9983 2.2352 287° West 460 529 34,500 -2,647 Descending FlightAware UK
Thu 03:57:52 53.0084 2.1811 287° West 462 532 34,500 3,462 Level FlightAware UK
Thu 03:58:00 53.0083 2.1531 287° West 411 473 36,000  Climbing FlightAware ADS-B
Thu 03:58:16 53.0218 2.1096 287° West 462 532 34,500  Descending FlightAware UK
Thu 03:58:30 53.0253 2.0624 287° West 411 473 36,000 1,698 Climbing FlightAware ADS-B
Thu 03:59:09 53.0471 1.9446 287° West 410 472 36,000  Level FlightAware ADS-B
Thu 03:59:40 53.0641 1.8520 287° West 411 473 36,000 -1,837 Level FlightAware ADS-B
Thu 03:59:58 53.0784 1.8033 287° West 460 529 34,500  Descending FlightAware UK
Thu 04:00:11 53.0809 1.7606 287° West 411 473 36,000  Climbing FlightAware ADS-B
Thu 04:00:34 53.0984 1.6948 287° West 460 529 34,500  Descending FlightAware UK
Thu 04:00:43 53.0986 1.6629 287° West 412 474 36,000  Climbing FlightAware ADS-B
Thu 04:01:04 53.1148 1.6049 287° West 460 529 34,500  Descending FlightAware UK
Thu 04:01:14 53.1155 1.5705 287° West 411 473 36,000  Climbing FlightAware ADS-B
Thu 04:01:34 53.1314 1.5143 287° West 460 529 34,500  Descending FlightAware UK
Thu 04:01:44 53.1318 1.4794 287° West 411 473 36,000  Climbing FlightAware ADS-B
Thu 04:02:04 53.1476 1.4236 287° West 460 529 34,500  Descending FlightAware UK
Thu 04:02:15 53.1486 1.3857 287° West 411 473 36,000  Climbing FlightAware ADS-B
Thu 04:02:34 53.1639 1.3328 287° West 460 529 34,500  Descending FlightAware UK
Thu 04:02:46 53.1653 1.2924 287° West 412 474 36,000  Climbing FlightAware ADS-B
Thu 04:03:04 53.1801 1.2427 287° West 458 527 34,500  Descending FlightAware UK
Thu 04:03:17 53.1819 1.1984 287° West 413 475 36,000  Climbing FlightAware ADS-B
Thu 04:03:34 53.1964 1.1512 287° West 458 527 34,500  Descending FlightAware UK
Thu 04:03:48 53.1984 1.1041 287° West 413 475 36,000  Climbing FlightAware ADS-B
Thu 04:04:04 53.2127 1.0599 287° West 458 527 34,500  Descending FlightAware UK
Thu 04:04:21 53.2160 1.0034 287° West 415 478 36,000  Climbing FlightAware ADS-B
Thu 04:04:40 53.2321 0.9506 287° West 458 527 34,500  Descending FlightAware UK
Thu 04:04:53 53.2331 0.9055 287° West 415 478 36,000  Climbing FlightAware ADS-B
Thu 04:05:10 53.2481 0.8585 287° West 460 529 34,500  Descending FlightAware UK
Thu 04:05:24 53.2495 0.8102 287° West 416 479 36,000  Climbing FlightAware ADS-B
Thu 04:05:40 53.2641 0.7661 287° West 460 529 34,500  Descending FlightAware UK
Thu 04:05:54 53.2655 0.7173 287° West 416 479 36,000  Climbing FlightAware ADS-B
Thu 04:06:16 53.2835 0.6551 287° West 460 529 34,500  Descending FlightAware UK
Thu 04:06:24 53.2816 0.6236 287° West 417 480 36,000  Climbing FlightAware ADS-B
Thu 04:06:40 53.2962 0.5808 287° West 460 529 34,500  Descending FlightAware UK
Thu 04:06:55 53.2976 0.5297 287° West 417 480 36,000  Climbing FlightAware ADS-B
Thu 04:07:15 53.3153 0.4701 287° West 462 532 34,500  Descending FlightAware UK
Thu 04:07:25 53.3134 0.4370 287° West 418 481 36,000  Climbing FlightAware ADS-B
Thu 04:07:45 53.3310 0.3770 287° West 462 532 34,500  Descending FlightAware UK
Thu 04:07:55 53.3292 0.3429 287° West 418 481 36,000  Climbing FlightAware ADS-B
Thu 04:08:15 53.3467 0.2839 287° West 460 529 34,500  Descending FlightAware UK
Thu 04:08:27 53.3460 0.2426 287° West 417 480 36,000  Climbing FlightAware ADS-B
Thu 04:08:45 53.3624 0.1908 287° West 460 529 34,500  Descending FlightAware UK
Thu 04:08:58 53.3618 0.1471 287° West 417 480 36,000  Climbing FlightAware ADS-B
Thu 04:09:21 53.3810 0.0796 287° West 460 529 34,500  Descending FlightAware UK
Thu 04:09:31 53.3786 0.0458 287° West 419 482 36,000 2,195 Climbing FlightAware ADS-B
Thu 04:10:02 53.3944 -0.0505 285° West 421 484 36,000  Level FlightAware ADS-B
Thu 04:10:32 53.4099 -0.1454 285° West 424 488 36,000  Level FlightAware ADS-B
Thu 04:11:02 53.4255 -0.2411 285° West 425 489 36,000 -1,636 Level FlightAware ADS-B
Thu 04:11:27 53.4465 -0.3168 285° West 464 534 34,500  Descending FlightAware UK
Thu 04:11:34 53.4419 -0.3432 285° West 426 490 36,000  Climbing FlightAware ADS-B
Thu 04:11:51 53.4588 -0.3925 285° West 466 536 34,500  Descending FlightAware UK
Thu 04:12:05 53.4576 -0.4400 285° West 427 491 36,000  Climbing FlightAware ADS-B
Thu 04:12:27 53.4772 -0.5077 285° West 462 532 34,500  Descending FlightAware UK
Thu 04:12:47 53.4789 -0.5744 285° West 428 493 36,000  Climbing FlightAware ADS-B
Thu 04:13:03 53.4960 -0.6231 285° West 464 534 34,500  Descending FlightAware UK
Thu 04:13:20 53.4957 -0.6801 285° West 431 496 36,000  Climbing FlightAware ADS-B
Thu 04:13:39 53.5145 -0.7388 285° West 464 534 34,500  Descending FlightAware UK
Thu 04:13:51 53.5115 -0.7810 285° West 433 498 36,000  Climbing FlightAware ADS-B
Thu 04:14:09 53.5299 -0.8363 285° West 466 536 34,500  Descending FlightAware UK
Thu 04:14:23 53.5270 -0.8790 285° West 434 499 36,000 3,913 Climbing FlightAware ADS-B
Thu 04:14:32 53.5326 -0.9155 284° West 434 499 36,000 -3,214 Level FlightAware ADS-B
Thu 04:14:51 53.5515 -0.9734 284° West 466 536 34,500  Descending FlightAware UK
Thu 04:15:06 53.5499 -1.0269 284° West 435 501 36,000  Climbing FlightAware ADS-B
Thu 04:15:21 53.5668 -1.0716 284° West 468 539 34,500  Descending FlightAware UK
Thu 04:15:37 53.5655 -1.1288 284° West 436 502 36,000 1,915 Climbing FlightAware ADS-B
Thu 04:16:08 53.5812 -1.2303 285° West 437 503 36,000 -1,636 Level FlightAware ADS-B
Thu 04:16:32 53.6033 -1.3070 285° West 466 536 34,500  Descending FlightAware UK
Thu 04:16:40 53.5971 -1.3354 285° West 438 504 36,000 2,308 Climbing FlightAware ADS-B
Thu 04:17:11 53.6123 -1.4355 284° West 439 505 36,000  Level FlightAware ADS-B
Thu 04:17:41 53.6273 -1.5359 284° West 439 505 36,000  Level FlightAware ADS-B
Thu 04:18:16 53.6442 -1.6490 284° West 440 506 36,000  Level FlightAware ADS-B
Thu 04:18:46 53.6593 -1.7511 284° West 440 506 36,000  Level FlightAware ADS-B
Thu 04:19:17 53.6742 -1.8519 284° West 440 506 36,000 -1,957 Level FlightAware ADS-B
Thu 04:19:32 53.6928 -1.9027 284° West 468 539 34,500  Descending FlightAware UK
Thu 04:19:53 53.6915 -1.9707 284° West 440 506 36,000  Climbing FlightAware ADS-B
Thu 04:20:14 53.7132 -2.0418 284° West 468 539 34,500  Descending FlightAware UK
Thu 04:20:24 53.7067 -2.0749 284° West 439 505 36,000  Climbing FlightAware ADS-B
Thu 04:20:44 53.7278 -2.1414 284° West 470 541 34,500  Descending FlightAware UK
Thu 04:20:54 53.7213 -2.1755 284° West 437 503 36,000 2,143 Climbing FlightAware ADS-B
Thu 04:21:26 53.7362 -2.2799 284° West 436 502 36,000 -1,800 Level FlightAware ADS-B
Thu 04:21:44 53.7566 -2.3392 284° West 468 539 34,500  Descending FlightAware UK
Thu 04:21:58 53.7509 -2.3839 284° West 435 501 36,000  Climbing FlightAware ADS-B
Thu 04:22:14 53.7707 -2.4382 284° West 466 536 34,500 -2,727 Descending FlightAware UK
Thu 04:22:31 53.7791 -2.4968 284° West 464 534 34,500 2,647 Level FlightAware UK
Thu 04:22:48 53.7730 -2.5430 284° West 433 498 36,000  Climbing FlightAware ADS-B
Thu 04:23:25 53.8042 -2.6738 284° West 466 536 34,500  Descending FlightAware UK
Thu 04:23:33 53.7930 -2.6860 284° West 433 498 36,000  Climbing FlightAware ADS-B
Thu 04:23:49 53.8152 -2.7529 284° West 466 536 34,500 -2,647 Descending FlightAware UK
Thu 04:24:07 53.8235 -2.8122 283° West 466 536 34,500 3,750 Level FlightAware UK
Thu 04:24:13 53.8120 -2.8220 283° West 432 497 36,000  Climbing FlightAware ADS-B
Thu 04:24:31 53.8345 -2.8912 283° West 464 534 34,500 -2,500 Descending FlightAware UK
Thu 04:24:49 53.8426 -2.9498 283° West 466 536 34,500 3,333 Level FlightAware UK
Thu 04:24:58 53.8330 -2.9730 283° West 433 498 36,000  Climbing FlightAware ADS-B
Thu 04:25:13 53.8535 -3.0288 283° West 464 534 34,500  Descending FlightAware UK
Thu 04:25:38 53.8530 -3.0940 283° West 434 499 36,000  Climbing FlightAware ADS-B
Thu 04:25:55 53.8802 -3.1638 283° West 464 534 34,500  Descending FlightAware UK
Thu 04:26:23 53.8820 -3.2370 283° West 431 496 36,000  Climbing FlightAware ADS-B
Thu 04:26:43 53.9113 -3.3175 283° West 464 534 34,500  Descending FlightAware UK
Thu 04:27:03 53.9080 -3.3690 283° West 433 498 36,000  Climbing FlightAware ADS-B
Thu 04:27:19 53.9334 -3.4340 283° West 464 534 34,500  Descending FlightAware UK
Thu 04:27:43 53.9310 -3.4970 283° West 433 498 36,000  Climbing FlightAware ADS-B
Thu 04:28:01 53.9584 -3.5698 283° West 464 534 34,500 -2,500 Descending FlightAware UK
Thu 04:28:19 53.9694 -3.6288 288° West 464 534 34,500 3,333 Level FlightAware UK
Thu 04:28:28 53.9580 -3.6440 288° West 434 499 36,000  Climbing FlightAware ADS-B
Thu 04:28:43 53.9837 -3.7062 288° West 464 534 34,500 -2,727 Descending FlightAware UK
Thu 04:29:01 53.9946 -3.7654 287° West 464 534 34,500 3,600 Level FlightAware UK
Thu 04:29:08 53.9820 -3.7720 287° West 434 499 36,000  Climbing FlightAware ADS-B
Thu 04:29:25 54.0089 -3.8428 287° West 464 534 34,500  Descending FlightAware UK
Thu 04:29:53 54.0100 -3.9200 287° West 434 499 36,000  Climbing FlightAware ADS-B
Thu 04:30:13 54.0386 -3.9985 287° West 464 534 34,500  Descending FlightAware UK
Thu 04:30:33 54.0340 -4.0470 287° West 434 499 36,000  Climbing FlightAware ADS-B
Thu 04:30:49 54.0609 -4.1154 287° West 464 534 34,500  Descending FlightAware UK
Thu 04:31:13 54.0580 -4.1760 287° West 434 499 36,000  Climbing FlightAware ADS-B
Thu 04:31:31 54.0865 -4.2519 287° West 464 534 34,500 -2,571 Descending FlightAware UK
Thu 04:31:48 54.0972 -4.3099 287° West 464 534 34,500 3,333 Level FlightAware UK
Thu 04:31:58 54.0850 -4.3230 287° West 433 498 36,000  Climbing FlightAware ADS-B
Thu 04:32:24 54.1189 -4.4271 287° West 466 536 34,500  Descending FlightAware UK
Thu 04:32:38 54.1090 -4.4540 287° West 433 498 36,000  Climbing FlightAware ADS-B
Thu 04:32:54 54.1369 -4.5247 287° West 464 534 34,500 -2,647 Descending FlightAware UK
Thu 04:33:12 54.1475 -4.5834 287° West 464 534 34,500 3,103 Level FlightAware UK
Thu 04:33:23 54.1350 -4.6000 287° West 433 498 36,000  Climbing FlightAware ADS-B
Thu 04:33:42 54.1627 -4.6824 287° West 462 532 34,500  Descending FlightAware UK
Thu 04:34:03 54.1550 -4.7320 287° West 432 497 36,000  Climbing FlightAware ADS-B
Thu 04:34:18 54.1787 -4.8016 287° West 464 534 34,500 -2,727 Descending FlightAware UK
Thu 04:34:36 54.1861 -4.8616 282° West 464 534 34,500 3,600 Level FlightAware UK
Thu 04:34:43 54.1720 -4.8670 282° West 430 495 36,000  Climbing FlightAware ADS-B
Thu 04:35:00 54.1955 -4.9409 282° West 464 534 34,500 -2,571 Descending FlightAware UK
Thu 04:35:18 54.2027 -5.0009 281° West 462 532 34,500 3,214 Level FlightAware UK
Thu 04:35:28 54.1890 -5.0140 281° West 431 496 36,000  Climbing FlightAware ADS-B
Thu 04:35:48 54.2146 -5.1009 281° West 464 534 34,500  Descending FlightAware UK
Thu 04:36:08 54.2050 -5.1490 281° West 432 497 36,000  Climbing FlightAware ADS-B
Thu 04:36:24 54.2289 -5.2211 281° West 464 534 34,500 -2,647 Descending FlightAware UK
Thu 04:36:42 54.2362 -5.2812 282° West 464 534 34,500 3,750 Level FlightAware UK
Thu 04:36:48 54.2210 -5.2820 282° West 431 496 36,000  Climbing FlightAware ADS-B
Thu 04:37:06 54.2459 -5.3614 282° West 462 532 34,500 -2,500 Descending FlightAware UK
Thu 04:37:24 54.2531 -5.4216 282° West 464 534 34,500 3,333 Level FlightAware UK
Thu 04:37:33 54.2390 -5.4300 282° West 433 498 36,000  Climbing FlightAware ADS-B
Thu 04:37:48 54.2626 -5.5021 282° West 462 532 34,500 -2,727 Descending FlightAware UK
Thu 04:38:06 54.2697 -5.5626 281° West 462 532 34,500 3,600 Level FlightAware UK
Thu 04:38:13 54.2550 -5.5690 281° West 435 501 36,000  Climbing FlightAware ADS-B
Thu 04:38:30 54.2793 -5.6433 281° West 464 534 34,500 -2,571 Descending FlightAware UK
Thu 04:38:48 54.2865 -5.7040 281° West 462 532 34,500 3,913 Level FlightAware UK
Thu 04:38:53 54.2700 -5.6960 281° West 435 501 36,000  Climbing FlightAware ADS-B
Thu 04:39:12 54.2960 -5.7850 281° West 462 532 34,500 -2,432 Descending FlightAware UK
Thu 04:39:30 54.3032 -5.8458 281° West 462 532 34,500 3,462 Level FlightAware UK
Thu 04:39:38 54.2880 -5.8500 281° West 437 503 36,000  Climbing FlightAware ADS-B
Thu 04:39:54 54.3126 -5.9272 281° West 462 532 34,500 -2,647 Descending FlightAware UK
Thu 04:40:12 54.3195 -5.9883 281° West 462 532 34,500 3,750 Level FlightAware UK
Thu 04:40:18 54.3050 -5.9900 281° West 439 505 36,000  Climbing FlightAware ADS-B
Thu 04:40:36 54.3289 -6.0700 281° West 462 532 34,500 -2,500 Descending FlightAware UK
Thu 04:40:54 54.3358 -6.1306 281° West 462 532 34,500 3,333 Level FlightAware UK
Thu 04:41:03 54.3210 -6.1360 281° West 441 507 36,000  Climbing FlightAware ADS-B
Thu 04:41:18 54.3450 -6.2126 281° West 462 532 34,500 -2,727 Descending FlightAware UK
Thu 04:41:36 54.3519 -6.2742 281° West 464 534 34,500 3,600 Level FlightAware UK
Thu 04:41:43 54.3370 -6.2790 281° West 442 509 36,000  Climbing FlightAware ADS-B
Thu 04:42:00 54.3611 -6.3566 281° West 464 534 34,500 -2,571 Descending FlightAware UK
Thu 04:42:18 54.3680 -6.4184 281° West 464 534 34,500 3,913 Level FlightAware UK
Thu 04:42:23 54.3530 -6.4180 281° West 442 509 36,000  Climbing FlightAware ADS-B
Thu 04:42:42 54.3772 -6.5009 281° West 464 534 34,500 -2,432 Descending FlightAware UK
Thu 04:43:00 54.3840 -6.5630 281° West 464 534 34,500 4,286 Level FlightAware UK
Thu 04:43:03 54.3670 -6.5480 281° West 443 510 36,000  Climbing FlightAware ADS-B
Thu 04:43:18 54.3906 -6.6250 281° West 466 536 34,500 -2,727 Descending FlightAware UK
Thu 04:43:36 54.3973 -6.6871 280° West 466 536 34,500 2,571 Level FlightAware UK
Thu 04:43:53 54.3870 -6.7280 280° West 445 512 36,000  Climbing FlightAware ADS-B
Thu 04:44:12 54.4108 -6.8118 280° West 466 536 34,500  Descending FlightAware UK
Thu 04:44:33 54.4020 -6.8640 280° West 445 512 36,000  Climbing FlightAware ADS-B
Thu 04:44:48 54.4241 -6.9365 280° West 466 536 34,500 -2,727 Descending FlightAware UK
Thu 04:45:06 54.4307 -6.9989 280° West 468 539 34,500 3,600 Level FlightAware UK
Thu 04:45:13 54.4170 -7.0090 280° West 445 512 36,000  Climbing FlightAware ADS-B
Thu 04:45:30 54.4395 -7.0820 280° West 468 539 34,500 -2,571 Descending FlightAware UK
Thu 04:45:48 54.4460 -7.1444 280° West 470 541 34,500 3,214 Level FlightAware UK
Thu 04:45:58 54.4330 -7.1590 280° West 444 511 36,000  Climbing FlightAware ADS-B
Thu 04:46:18 54.4568 -7.2482 280° West 468 539 34,500 -2,368 Descending FlightAware UK
Thu 04:46:36 54.4632 -7.3104 280° West 468 539 34,500 4,500 Level FlightAware UK
Thu 04:46:38 54.4470 -7.2950 280° West 443 510 36,000  Climbing FlightAware ADS-B
Thu 04:46:54 54.4696 -7.3718 280° West 466 536 34,500 -2,647 Descending FlightAware UK
Thu 04:47:12 54.4759 -7.4339 280° West 466 536 34,500 3,750 Level FlightAware UK
Thu 04:47:18 54.4610 -7.4320 280° West 442 509 36,000  Climbing FlightAware ADS-B
Thu 04:47:36 54.4843 -7.5167 280° West 466 536 34,500 -2,500 Descending FlightAware UK
Thu 04:47:54 54.4907 -7.5788 280° West 466 536 34,500 3,333 Level FlightAware UK
Thu 04:48:03 54.4770 -7.5900 280° West 443 510 36,000  Climbing FlightAware ADS-B
Thu 04:48:18 54.4988 -7.6618 280° West 466 536 34,500 -2,727 Descending FlightAware UK
Thu 04:48:36 54.5049 -7.7242 280° West 466 536 34,500 3,600 Level FlightAware UK
Thu 04:48:43 54.4920 -7.7320 280° West 443 510 36,000  Climbing FlightAware ADS-B
Thu 04:49:00 54.5131 -7.8075 280° West 466 536 34,500 -2,571 Descending FlightAware UK
Thu 04:49:18 54.5192 -7.8701 280° West 466 536 34,500 3,214 Level FlightAware UK
Thu 04:49:28 54.5070 -7.8860 280° West 445 512 36,000  Climbing FlightAware ADS-B
Thu 04:49:48 54.5294 -7.9745 280° West 466 536 34,500 -2,368 Descending FlightAware UK
Thu 04:50:06 54.5355 -8.0373 280° West 464 534 34,500 4,500 Level FlightAware UK
Thu 04:50:08 54.5200 -8.0220 280° West 445 512 36,000  Climbing FlightAware ADS-B
Thu 04:50:24 54.5415 -8.1002 280° West 468 539 34,500 -2,647 Descending FlightAware UK
Thu 04:50:42 54.5477 -8.1631 280° West 468 539 34,500 3,103 Level FlightAware UK
Thu 04:50:53 54.5360 -8.1830 280° West 445 512 36,000  Climbing FlightAware ADS-B
Thu 04:51:12 54.5575 -8.2681 280° West 466 536 34,500 -2,432 Descending FlightAware UK
Thu 04:51:30 54.5634 -8.3312 279° West 468 539 34,500 4,286 Level FlightAware UK
Thu 04:51:33 54.5490 -8.3230 279° West 446 513 36,000  Climbing FlightAware ADS-B
Thu 04:51:48 54.5694 -8.3943 279° West 466 536 34,500 -2,727 Descending FlightAware UK
Thu 04:52:06 54.5753 -8.4575 279° West 466 536 34,500 3,600 Level FlightAware UK
Thu 04:52:13 54.5630 -8.4660 279° West 447 514 36,000  Climbing FlightAware ADS-B
Thu 04:52:30 54.5831 -8.5418 279° West 466 536 34,500 -2,571 Descending FlightAware UK
Thu 04:52:48 54.5890 -8.6051 279° West 470 541 34,500 3,214 Level FlightAware UK
Thu 04:52:58 54.5780 -8.6210 279° West 448 516 36,000  Climbing FlightAware ADS-B
Thu 04:53:18 54.5986 -8.7100 279° West 468 539 34,500  Descending FlightAware UK
Thu 04:53:38 54.5910 -8.7620 279° West 449 517 36,000  Climbing FlightAware ADS-B
Thu 04:53:54 54.6101 -8.8368 279° West 468 539 34,500 -2,647 Descending FlightAware UK
Thu 04:54:12 54.6156 -8.9001 279° West 468 539 34,500 3,103 Level FlightAware UK
Thu 04:54:23 54.6050 -8.9220 279° West 449 517 36,000  Climbing FlightAware ADS-B
Thu 04:54:42 54.6249 -9.0057 279° West 468 539 34,500  Descending FlightAware UK
Thu 04:55:03 54.6170 -9.0600 279° West 449 517 36,000 1,475 Climbing FlightAware ADS-B
Thu 04:55:43 54.6300 -9.2050 279° West 450 518 36,000  Level FlightAware ADS-B
Thu 04:56:28 54.6440 -9.3630 279° West 448 516 36,000  Level FlightAware ADS-B
Thu 04:57:08 54.6560 -9.5040 278° West 448 516 36,000  Level FlightAware ADS-B
Thu 04:57:48 54.6680 -9.6470 278° West 448 516 36,000  Level FlightAware ADS-B
Thu 04:58:33 54.6810 -9.8030 278° West 449 517 36,000  Level FlightAware ADS-B
Thu 04:59:13 54.6930 -9.9470 278° West 449 517 36,000  Level FlightAware ADS-B
Thu 04:59:53 54.7040 -10.0860 278° West 447 514 36,000  Level FlightAware ADS-B
Thu 05:00:38 54.7170 -10.2400 278° West 437 503 36,000  Level FlightAware ADS-B
Thu 05:01:23 54.7290 -10.3990 278° West 424 488 36,000  Level FlightAware ADS-B
Thu 05:01:58 54.7380 -10.5170 278° West 415 478 36,000  Level FlightAware ADS-B
Thu 05:02:43 54.7500 -10.6680 278° West 410 472 36,000  Level FlightAware ADS-B
Thu 05:03:23 54.7590 -10.7950 277° West 410 472 36,000  Level FlightAware ADS-B
Thu 05:04:23 54.7740 -10.9960 277° West 413 475 36,000  Level FlightAware ADS-B
Thu 05:05:03 54.7840 -11.1270 278° West 414 476 36,000  Level FlightAware ADS-B
Thu 05:05:43 54.7920 -11.2510 276° West 409 471 36,000  Level FlightAware ADS-B
Thu 05:06:18 54.8010 -11.3690 278° West 403 464 36,000  Level FlightAware ADS-B
Thu 05:07:08 54.8120 -11.5280 277° West 404 465 36,000  Level FlightAware ADS-B
Thu 05:08:48 54.8320 -11.8360 277° West 412 474 36,000  Level FlightAware ADS-B
Thu 05:09:38 54.8430 -12.0010 277° West 414 476 36,000  Level FlightAware ADS-B
Thu 05:10:38 54.8560 -12.2070 276° West 416 479 36,000  Level FlightAware ADS-B
Thu 05:11:13 54.8630 -12.3230 276° West 416 479 36,000  Level FlightAware ADS-B
Thu 05:11:58 54.8730 -12.4760 277° West 416 479 36,000  Level FlightAware ADS-B
Thu 05:12:43 54.8810 -12.6190 276° West 415 478 36,000  Level FlightAware ADS-B
Thu 05:13:28 54.8900 -12.7670 276° West 412 474 36,000  Level FlightAware ADS-B
Thu 05:14:03 54.8960 -12.8720 276° West 410 472 36,000  Level FlightAware ADS-B
Thu 05:14:48 54.9040 -13.0280 275° West 406 467 36,000  Level FlightAware ADS-B
Thu 05:15:33 54.9130 -13.1760 276° West 403 464 36,000  Level FlightAware ADS-B
Thu 05:16:13 54.9190 -13.3020 275° West 401 461 36,000  Level FlightAware ADS-B
Thu 05:16:58 54.9270 -13.4510 275° West 398 458 36,000  Level FlightAware ADS-B
Thu 05:17:38 54.9330 -13.5710 275° West 397 457 36,000  Level FlightAware ADS-B
Thu 05:18:18 54.9400 -13.7010 275° West 397 457 36,000  Level FlightAware ADS-B
Thu 05:18:58 54.9450 -13.8100 275° West 397 457 36,000  Level FlightAware ADS-B
Thu 05:19:38 54.9510 -13.9180 276° West 397 457 36,000  Level FlightAware ADS-B
Thu 05:20:28 54.9570 -14.0530 274° West 397 457 36,000  Level FlightAware ADS-B
Thu 05:21:08 54.9630 -14.1620 276° West 397 457 36,000  Level FlightAware ADS-B
Thu 05:21:48 54.9680 -14.2700 275° West 397 457 36,000  Level FlightAware ADS-B
Thu 05:22:28 54.9740 -14.3780 276° West 397 457 36,000  Level FlightAware ADS-B
Thu 05:23:08 54.9790 -14.4870 275° West 397 457 36,000  Level FlightAware ADS-B
Thu 05:23:58 54.9860 -14.6220 275° West 397 457 36,000  Level FlightAware ADS-B
Thu 05:24:38 54.9910 -14.7310 275° West 397 457 36,000  Level FlightAware ADS-B
Thu 05:25:18 54.9970 -14.8390 276° West 397 457 36,000  Level FlightAware ADS-B
Thu 05:25:58 55.0020 -14.9480 275° West 397 457 36,000  Level FlightAware ADS-B
Thu 05:26:38 55.0080 -15.0560 276° West 397 457 36,000  Level FlightAware ADS-B
Thu 05:27:18 55.0130 -15.1650 275° West 397 457 36,000 82 Level FlightAware ADS-B
Thu 05:30:00 55.0364 -15.6786 275° West  Level Estimated
Thu 05:31:00 55.0444 -15.8689 274° West  Level Estimated
Thu 05:32:00 55.0522 -16.0593 274° West  Level Estimated
Thu 05:33:00 55.0597 -16.2499 274° West  Level Estimated
Thu 05:34:00 55.0670 -16.4404 274° West  Level Estimated
Thu 05:35:00 55.0739 -16.6311 274° West  Level Estimated
Thu 05:36:00 55.0808 -16.8305 274° West  Level Estimated
Thu 05:37:00 55.0873 -17.0299 273° West  Level Estimated
Thu 05:38:00 55.0936 -17.2295 273° West  Level Estimated
Thu 05:39:00 55.0995 -17.4290 273° West  Level Estimated
Thu 05:40:00 55.1051 -17.6287 273° West  Level Estimated
Thu 05:41:00 55.1104 -17.8284 273° West  Level Estimated
Thu 05:42:00 55.1153 -18.0281 273° West  Level Estimated
Thu 05:43:00 55.1200 -18.2279 272° West  Level Estimated
Thu 05:44:00 55.1243 -18.4277 272° West  Level Estimated
Thu 05:45:00 55.1282 -18.6276 272° West  Level Estimated
Thu 05:46:00 55.1319 -18.8275 272° West  Level Estimated
Thu 05:47:00 55.1352 -19.0275 272° West  Level Estimated
Thu 05:48:00 55.1382 -19.2275 272° West  Level Estimated
Thu 05:49:00 55.1408 -19.4275 271° West  Level Estimated
Thu 05:50:00 55.1432 -19.6275 271° West  Level Estimated
Thu 05:51:00 55.1451 -19.8276 271° West  Level Estimated
Thu 05:51:00 56.0000 -20.0000 274° West 427 491 38,000  Level ETMS Enhanced Traffic Management System
Thu 05:52:00 55.1468 -20.0277 271° West  Level Estimated
Thu 05:53:00 55.1482 -20.2277 271° West  Level Estimated
Thu 05:54:00 55.1492 -20.4278 271° West  Level Estimated
Thu 05:55:00 55.1499 -20.6280 270° West  Level Estimated
Thu 05:56:00 55.1502 -20.8281 270° West  Level Estimated
Thu 05:57:00 56.0513 -21.4862 273° West 427 491 38,000  Level FlightAware Transoceanic
Thu 05:58:00 56.0571 -21.6989 273° West 427 491 38,000  Level FlightAware Transoceanic
Thu 05:59:00 56.0626 -21.9116 273° West 427 491 38,000  Level FlightAware Transoceanic
Thu 06:00:00 56.0678 -22.1243 272° West 427 491 38,000  Level FlightAware Transoceanic
Thu 06:01:00 56.0725 -22.3371 272° West 427 491 38,000  Level FlightAware Transoceanic
Thu 06:02:00 56.0769 -22.5499 272° West 427 491 38,000  Level FlightAware Transoceanic
Thu 06:03:00 56.0810 -22.7628 272° West 427 491 38,000  Level FlightAware Transoceanic
Thu 06:04:00 56.0846 -22.9758 272° West 427 491 38,000  Level FlightAware Transoceanic
Thu 06:05:00 56.0879 -23.1887 272° West 427 491 38,000  Level FlightAware Transoceanic
Thu 06:06:00 56.0909 -23.4018 271° West 427 491 38,000  Level FlightAware Transoceanic
Thu 06:07:00 56.0934 -23.6148 271° West 427 491 38,000  Level FlightAware Transoceanic
Thu 06:08:00 56.0956 -23.8279 271° West 427 491 38,000  Level FlightAware Transoceanic
Thu 06:09:00 56.0975 -24.0409 271° West 427 491 38,000  Level FlightAware Transoceanic
Thu 06:10:00 56.0989 -24.2540 271° West 427 491 38,000  Level FlightAware Transoceanic
Thu 06:11:00 56.1001 -24.4672 270° West 427 491 38,000  Level FlightAware Transoceanic
Thu 06:12:00 56.1008 -24.6803 270° West 427 491 38,000  Level FlightAware Transoceanic
Thu 06:13:00 56.1012 -24.8934 270° West 427 491 38,000  Level FlightAware Transoceanic
Thu 06:14:00 56.1012 -25.1066 270° West 427 491 38,000  Level FlightAware Transoceanic
Thu 06:15:00 56.1008 -25.3197 270° West 427 491 38,000  Level FlightAware Transoceanic
Thu 06:16:00 56.1001 -25.5328 270° West 427 491 38,000  Level FlightAware Transoceanic
Thu 06:17:00 56.0989 -25.7460 269° West 427 491 38,000  Level FlightAware Transoceanic
Thu 06:18:00 56.0975 -25.9591 269° West 427 491 38,000  Level FlightAware Transoceanic
Thu 06:19:00 56.0956 -26.1721 269° West 427 491 38,000  Level FlightAware Transoceanic
Thu 06:20:00 56.0934 -26.3852 269° West 427 491 38,000  Level FlightAware Transoceanic
Thu 06:21:00 56.0909 -26.5982 269° West 427 491 38,000  Level FlightAware Transoceanic
Thu 06:22:00 56.0879 -26.8113 268° West 427 491 38,000  Level FlightAware Transoceanic
Thu 06:23:00 56.0846 -27.0242 268° West 427 491 38,000  Level FlightAware Transoceanic
Thu 06:24:00 56.0810 -27.2372 268° West 427 491 38,000  Level FlightAware Transoceanic
Thu 06:25:00 56.0769 -27.4501 268° West 427 491 38,000  Level FlightAware Transoceanic
Thu 06:26:00 56.0725 -27.6629 268° West 427 491 38,000  Level FlightAware Transoceanic
Thu 06:27:00 56.0678 -27.8757 268° West 427 491 38,000  Level FlightAware Transoceanic
Thu 06:28:00 56.0626 -28.0884 267° West 427 491 38,000  Level FlightAware Transoceanic
Thu 06:29:00 56.0571 -28.3011 267° West 427 491 38,000  Level FlightAware Transoceanic
Thu 06:30:00 56.0513 -28.5138 267° West 427 491 38,000  Level FlightAware Transoceanic
Thu 06:31:00 56.0450 -28.7263 267° West 427 491 38,000  Level FlightAware Transoceanic
Thu 06:32:00 56.0384 -28.9388 267° West 427 491 38,000  Level FlightAware Transoceanic
Thu 06:33:00 56.0315 -29.1512 267° West 427 491 38,000  Level FlightAware Transoceanic
Thu 06:34:00 56.0242 -29.3635 266° West 427 491 38,000  Level FlightAware Transoceanic
Thu 06:35:00 56.0165 -29.5758 266° West 427 491 38,000  Level FlightAware Transoceanic
Thu 06:36:00 56.0084 -29.7879 266° West 427 491 38,000  Level FlightAware Transoceanic
Thu 06:37:00 56.0003 -29.9919 266° West  Level FlightAware Approximate
Thu 06:38:00 55.9918 -30.1959 266° West  Level FlightAware Approximate
Thu 06:39:00 56.0075 -30.1879 274° West  Level FlightAware Approximate
Thu 06:40:00 56.0153 -30.3920 274° West  Level FlightAware Approximate
Thu 06:41:00 56.0227 -30.5961 274° West  Level FlightAware Approximate
Thu 06:42:00 56.0299 -30.8004 274° West  Level FlightAware Approximate
Thu 06:43:00 56.0366 -31.0047 273° West  Level FlightAware Approximate
Thu 06:44:00 56.0431 -31.2090 273° West  Level FlightAware Approximate
Thu 06:45:00 56.0492 -31.4135 273° West  Level FlightAware Approximate
Thu 06:46:00 56.0550 -31.6180 273° West  Level FlightAware Approximate
Thu 06:47:00 56.0604 -31.8226 273° West  Level FlightAware Approximate
Thu 06:48:00 56.0655 -32.0272 273° West  Level FlightAware Approximate
Thu 06:49:00 56.0702 -32.2319 272° West  Level FlightAware Approximate
Thu 06:50:00 56.0746 -32.4366 272° West  Level FlightAware Approximate
Thu 06:51:00 56.0787 -32.6414 272° West  Level FlightAware Approximate
Thu 06:52:00 56.0825 -32.8462 272° West  Level FlightAware Approximate
Thu 06:53:00 56.0858 -33.0510 272° West  Level FlightAware Approximate
Thu 06:54:00 56.0889 -33.2559 272° West  Level FlightAware Approximate
Thu 06:55:00 56.0916 -33.4609 271° West  Level FlightAware Approximate
Thu 06:56:00 56.0940 -33.6658 271° West  Level FlightAware Approximate
Thu 06:57:00 56.0961 -33.8708 271° West  Level FlightAware Approximate
Thu 06:58:00 56.0978 -34.0758 271° West  Level FlightAware Approximate
Thu 06:59:00 56.0991 -34.2808 271° West  Level FlightAware Approximate
Thu 07:00:00 56.1001 -34.4858 271° West  Level FlightAware Approximate
Thu 07:01:00 56.1008 -34.6908 270° West  Level FlightAware Approximate
Thu 07:02:00 56.1012 -34.8958 270° West  Level FlightAware Approximate
Thu 07:03:00 56.1012 -35.1009 270° West  Level FlightAware Approximate
Thu 07:04:00 56.1008 -35.3059 270° West  Level FlightAware Approximate
Thu 07:05:00 56.1001 -35.5109 270° West  Level FlightAware Approximate
Thu 07:06:00 56.0991 -35.7160 270° West  Level FlightAware Approximate
Thu 07:07:00 56.0978 -35.9210 269° West  Level FlightAware Approximate
Thu 07:08:00 56.0961 -36.1259 269° West  Level FlightAware Approximate
Thu 07:09:00 56.0940 -36.3309 269° West  Level FlightAware Approximate
Thu 07:10:00 56.0917 -36.5359 269° West  Level FlightAware Approximate
Thu 07:11:00 56.0890 -36.7408 269° West  Level FlightAware Approximate
Thu 07:12:00 56.0859 -36.9457 269° West  Level FlightAware Approximate
Thu 07:13:00 56.0825 -37.1505 268° West  Level FlightAware Approximate
Thu 07:14:00 56.0788 -37.3553 268° West  Level FlightAware Approximate
Thu 07:15:00 56.0747 -37.5601 268° West  Level FlightAware Approximate
Thu 07:16:00 56.0703 -37.7648 268° West  Level FlightAware Approximate
Thu 07:17:00 56.0656 -37.9695 268° West  Level FlightAware Approximate
Thu 07:18:00 56.0605 -38.1741 268° West  Level FlightAware Approximate
Thu 07:19:00 56.0550 -38.3787 267° West  Level FlightAware Approximate
Thu 07:20:00 56.0493 -38.5832 267° West  Level FlightAware Approximate
Thu 07:21:00 56.0432 -38.7877 267° West  Level FlightAware Approximate
Thu 07:22:00 56.0367 -38.9920 267° West  Level FlightAware Approximate
Thu 07:23:00 56.0300 -39.1964 267° West  Level FlightAware Approximate
Thu 07:24:00 56.0229 -39.4006 267° West  Level FlightAware Approximate
Thu 07:25:00 56.0154 -39.6048 266° West  Level FlightAware Approximate
Thu 07:26:00 56.0076 -39.8088 266° West  Level FlightAware Approximate
Thu 07:27:00 56.0005 -40.0128 274° West  Level FlightAware Approximate
Thu 07:28:00 56.0086 -40.2169 274° West  Level FlightAware Approximate
Thu 07:29:00 56.0163 -40.4209 274° West  Level FlightAware Approximate
Thu 07:30:00 56.0238 -40.6251 274° West  Level FlightAware Approximate
Thu 07:31:00 56.0308 -40.8294 274° West  Level FlightAware Approximate
Thu 07:32:00 56.0376 -41.0337 273° West  Level FlightAware Approximate
Thu 07:33:00 56.0440 -41.2381 273° West  Level FlightAware Approximate
Thu 07:34:00 56.0500 -41.4425 273° West  Level FlightAware Approximate
Thu 07:35:00 56.0557 -41.6470 273° West  Level FlightAware Approximate
Thu 07:36:00 56.0611 -41.8516 273° West  Level FlightAware Approximate
Thu 07:37:00 56.0662 -42.0563 273° West  Level FlightAware Approximate
Thu 07:38:00 56.0709 -42.2609 272° West  Level FlightAware Approximate
Thu 07:39:00 56.0752 -42.4657 272° West  Level FlightAware Approximate
Thu 07:40:00 56.0793 -42.6705 272° West  Level FlightAware Approximate
Thu 07:41:00 56.0830 -42.8753 272° West  Level FlightAware Approximate
Thu 07:42:00 56.0863 -43.0801 272° West  Level FlightAware Approximate
Thu 07:43:00 56.0893 -43.2850 272° West  Level FlightAware Approximate
Thu 07:44:00 56.0920 -43.4899 271° West  Level FlightAware Approximate
Thu 07:45:00 56.0943 -43.6949 271° West  Level FlightAware Approximate
Thu 07:46:00 56.0963 -43.8999 271° West  Level FlightAware Approximate
Thu 07:47:00 56.0980 -44.1049 271° West  Level FlightAware Approximate
Thu 07:48:00 56.0993 -44.3099 271° West  Level FlightAware Approximate
Thu 07:49:00 56.1002 -44.5149 271° West  Level FlightAware Approximate
Thu 07:50:00 56.1009 -44.7199 270° West  Level FlightAware Approximate
Thu 07:51:00 56.1012 -44.9249 270° West  Level FlightAware Approximate
Thu 07:52:00 56.1011 -45.1300 270° West  Level FlightAware Approximate
Thu 07:53:00 56.1007 -45.3350 270° West  Level FlightAware Approximate
Thu 07:54:00 56.1000 -45.5400 270° West  Level FlightAware Approximate
Thu 07:55:00 56.0990 -45.7450 270° West  Level FlightAware Approximate
Thu 07:56:00 56.0976 -45.9501 269° West  Level FlightAware Approximate
Thu 07:57:00 56.0958 -46.1550 269° West  Level FlightAware Approximate
Thu 07:58:00 56.0937 -46.3600 269° West  Level FlightAware Approximate
Thu 07:59:00 56.0913 -46.5649 269° West  Level FlightAware Approximate
Thu 08:00:00 56.0886 -46.7699 269° West  Level FlightAware Approximate
Thu 08:01:00 56.0855 -46.9747 269° West  Level FlightAware Approximate
Thu 08:02:00 56.0820 -47.1796 268° West  Level FlightAware Approximate
Thu 08:03:00 56.0782 -47.3844 268° West  Level FlightAware Approximate
Thu 08:04:00 56.0741 -47.5892 268° West  Level FlightAware Approximate
Thu 08:05:00 56.0697 -47.7939 268° West  Level FlightAware Approximate
Thu 08:06:00 56.0649 -47.9986 268° West  Level FlightAware Approximate
Thu 08:07:00 56.0597 -48.2032 268° West  Level FlightAware Approximate
Thu 08:08:00 56.0542 -48.4077 267° West  Level FlightAware Approximate
Thu 08:09:00 56.0484 -48.6122 267° West  Level FlightAware Approximate
Thu 08:10:00 56.0423 -48.8167 267° West  Level FlightAware Approximate
Thu 08:11:00 56.0358 -49.0210 267° West  Level FlightAware Approximate
Thu 08:12:00 56.0290 -49.2253 267° West  Level FlightAware Approximate
Thu 08:13:00 56.0218 -49.4296 266° West  Level FlightAware Approximate
Thu 08:14:00 56.0143 -49.6337 266° West  Level FlightAware Approximate
Thu 08:15:00 56.0065 -49.8378 266° West  Level FlightAware Approximate
Thu 08:16:00 55.9906 -50.0384 246° West  Level FlightAware Approximate
Thu 08:17:00 55.9447 -50.2255 246° West  Level FlightAware Approximate
Thu 08:18:00 55.8984 -50.4122 246° West  Level FlightAware Approximate
Thu 08:19:00 55.8519 -50.5984 246° West  Level FlightAware Approximate
Thu 08:20:00 55.8051 -50.7841 246° West  Level FlightAware Approximate
Thu 08:21:00 55.7581 -50.9695 246° West  Level FlightAware Approximate
Thu 08:22:00 55.7107 -51.1543 246° West  Level FlightAware Approximate
Thu 08:23:00 55.6631 -51.3387 245° Southwest  Level FlightAware Approximate
Thu 08:24:00 55.6152 -51.5227 245° Southwest  Level FlightAware Approximate
Thu 08:25:00 55.5670 -51.7062 245° Southwest  Level FlightAware Approximate
Thu 08:26:00 55.5186 -51.8893 245° Southwest  Level FlightAware Approximate
Thu 08:27:00 55.4698 -52.0719 245° Southwest  Level FlightAware Approximate
Thu 08:28:00 55.4208 -52.2541 245° Southwest  Level FlightAware Approximate
Thu 08:29:00 55.3716 -52.4358 245° Southwest  Level FlightAware Approximate
Thu 08:30:00 55.3220 -52.6171 244° Southwest  Level FlightAware Approximate
Thu 08:31:00 55.2722 -52.7979 244° Southwest  Level FlightAware Approximate
Thu 08:32:00 55.2222 -52.9782 244° Southwest  Level FlightAware Approximate
Thu 08:33:00 55.1718 -53.1581 244° Southwest  Level FlightAware Approximate
Thu 08:34:00 55.1212 -53.3376 244° Southwest  Level FlightAware Approximate
Thu 08:35:00 55.0704 -53.5166 244° Southwest  Level FlightAware Approximate
Thu 08:36:00 55.0192 -53.6951 244° Southwest  Level FlightAware Approximate
Thu 08:37:00 54.9679 -53.8732 243° Southwest  Level FlightAware Approximate
Thu 08:38:00 54.9162 -54.0508 243° Southwest  Level FlightAware Approximate
Thu 08:38:18 54.7833 -55.1500 231° Southwest 450 518 38,000  Level Moncton Center
Thu 08:39:00 54.8643 -54.2280 243° Southwest  Level FlightAware Approximate
Thu 08:39:00 54.7500 -55.3167 251° West 450 518 38,000  Level Gander Center
Thu 08:40:00 54.8122 -54.4047 243° Southwest  Level FlightAware Approximate
Thu 08:40:00 54.7000 -55.5000 245° Southwest 450 518 38,000  Level Gander Center
Thu 08:41:00 54.7598 -54.5809 243° Southwest  Level FlightAware Approximate
Thu 08:41:00 54.6500 -55.7000 247° West 450 518 38,000  Level Gander Center
Thu 08:42:00 54.6877 -54.7336 231° Southwest  Level Estimated
Thu 08:42:00 54.5833 -55.8833 238° Southwest 450 518 38,000  Level Gander Center
Thu 08:43:00 54.6155 -54.8857 231° Southwest  Level Estimated
Thu 08:43:00 54.5167 -56.0667 238° Southwest 450 518 38,000  Level Gander Center
Thu 08:44:00 54.4500 -56.2167 233° Southwest 450 518 38,000  Level Gander Center
Thu 08:45:00 54.3500 -56.4333 232° Southwest 460 529 38,000  Level Gander Center
Thu 08:46:00 54.3000 -56.5833 240° Southwest 460 529 38,000  Level Gander Center
Thu 08:46:18 54.2667 -56.6333 221° Southwest 470 541 38,000  Level Moncton Center
Thu 08:47:18 54.2000 -56.8167 238° Southwest 470 541 38,000  Level Moncton Center
Thu 08:48:00 54.1333 -56.9500 230° Southwest 470 541 38,000  Level Gander Center
Thu 08:49:00 54.0667 -57.1167 236° Southwest 470 541 38,000  Level Gander Center
Thu 08:49:18 54.0333 -57.2000 236° Southwest 470 541 38,000  Level Moncton Center
Thu 08:50:18 53.9833 -57.3667 243° Southwest 470 541 38,000  Level Moncton Center
Thu 08:51:00 53.9167 -57.5000 230° Southwest 460 529 38,000  Level Gander Center
Thu 08:52:00 53.8667 -57.6833 245° Southwest 460 529 38,000  Level Gander Center
Thu 08:53:00 53.7833 -57.8500 230° Southwest 460 529 38,000  Level Gander Center
Thu 08:54:00 53.7167 -58.0667 243° Southwest 460 529 38,000  Level Gander Center
Thu 08:55:00 53.6667 -58.2333 243° Southwest 460 529 38,000  Level Gander Center
Thu 08:56:00 53.5833 -58.4167 233° Southwest 460 529 38,000  Level Gander Center
Thu 08:57:00 53.5167 -58.6167 241° Southwest 460 529 38,000  Level Gander Center
Thu 08:58:00 53.4500 -58.7833 236° Southwest 460 529 38,000  Level Gander Center
Thu 08:59:00 53.3667 -58.9833 235° Southwest 460 529 38,000  Level Gander Center
Thu 09:00:00 53.3167 -59.1500 243° Southwest 460 529 38,000  Level Gander Center
Thu 09:01:00 53.2500 -59.3333 239° Southwest 460 529 38,000  Level Gander Center
Thu 09:02:00 53.1667 -59.5333 235° Southwest 460 529 38,000  Level Gander Center
Thu 09:03:00 53.1000 -59.7000 236° Southwest 460 529 38,000  Level Gander Center
Thu 09:04:00 53.0167 -59.8667 230° Southwest 460 529 38,000  Level Gander Center
Thu 09:05:00 52.9500 -60.0333 236° Southwest 460 529 38,000  Level Gander Center
Thu 09:06:00 52.8833 -60.2000 237° Southwest 460 529 38,000  Level Gander Center
Thu 09:07:00 52.8167 -60.4000 241° Southwest 460 529 38,000  Level Gander Center
Thu 09:07:18 52.8000 -60.4333 230° Southwest 460 529 38,000  Level Moncton Center
Thu 09:08:18 52.7333 -60.6167 239° Southwest 450 518 38,000  Level Moncton Center
Thu 09:09:18 52.6500 -60.7833 231° Southwest 450 518 38,000  Level Moncton Center
Thu 09:10:18 52.5833 -60.9500 237° Southwest 450 518 38,000  Level Moncton Center
Thu 09:11:18 52.5167 -61.1333 239° Southwest 450 518 38,000  Level Moncton Center
Thu 09:12:00 52.4667 -61.2500 235° Southwest 450 518 38,000  Level Gander Center
Thu 09:13:00 52.4000 -61.4167 237° Southwest 450 518 38,000  Level Gander Center
Thu 09:13:18 52.3667 -61.4667 222° Southwest 450 518 38,000  Level Moncton Center
Thu 09:14:18 52.3000 -61.6333 237° Southwest 450 518 38,000  Level Moncton Center
Thu 09:15:18 52.2167 -61.8000 231° Southwest 450 518 38,000  Level Moncton Center
Thu 09:16:00 52.1667 -61.9333 239° Southwest 450 518 38,000  Level Gander Center
Thu 09:17:00 52.1000 -62.0667 231° Southwest 440 506 38,000  Level Gander Center
Thu 09:18:00 52.0333 -62.2333 237° Southwest 440 506 38,000  Level Gander Center
Thu 09:19:00 51.9667 -62.4167 240° Southwest 440 506 38,000  Level Gander Center
Thu 09:19:18 51.9500 -62.4667 242° Southwest 440 506 38,000  Level Moncton Center
Thu 09:20:18 51.8667 -62.6167 228° Southwest 440 506 38,000  Level Moncton Center
Thu 09:21:00 51.8333 -62.7500 248° West 440 506 38,000  Level Gander Center
Thu 09:22:00 51.7667 -62.9000 234° Southwest 440 506 38,000  Level Gander Center
Thu 09:23:00 51.6833 -63.0667 231° Southwest 430 495 38,000  Level Gander Center
Thu 09:24:00 51.6000 -63.2167 228° Southwest 430 495 38,000  Level Gander Center
Thu 09:24:18 51.6000 -63.2667 270° West 430 495 38,000  Level Moncton Center
Thu 09:25:18 51.5333 -63.4000 231° Southwest 430 495 38,000  Level Moncton Center
Thu 09:26:00 51.4667 -63.5333 231° Southwest 430 495 38,000  Level Gander Center
Thu 09:27:00 51.4000 -63.6667 231° Southwest 430 495 38,000  Level Gander Center
Thu 09:28:00 51.3333 -63.8500 240° Southwest 430 495 38,000  Level Gander Center
Thu 09:29:00 51.2667 -63.9833 231° Southwest 430 495 38,000  Level Gander Center
Thu 09:30:00 51.1833 -64.1333 228° Southwest 430 495 38,000  Level Gander Center
Thu 09:30:18 51.1667 -64.1833 242° Southwest 430 495 38,000  Level Moncton Center
Thu 09:31:18 51.1000 -64.3500 238° Southwest 430 495 38,000  Level Moncton Center
Thu 09:32:18 51.0333 -64.5000 235° Southwest 430 495 38,000  Level Moncton Center
Thu 09:33:00 50.9667 -64.6000 223° Southwest 430 495 38,000  Level Gander Center
Thu 09:34:00 50.9000 -64.7500 235° Southwest 430 495 38,000 50 Level Gander Center
Thu 09:35:00 50.8333 -64.9167 238° Southwest 430 495 38,100 250 Climbing Gander Center
Thu 09:36:00 50.7667 -65.0667 235° Southwest 430 495 38,500 450 Climbing Gander Center
Thu 09:37:00 50.6833 -65.1833 222° Southwest 430 495 39,000 550 Climbing Gander Center
Thu 09:38:00 50.6000 -65.3667 234° Southwest 440 506 39,600 500 Climbing Gander Center
Thu 09:39:00 50.5333 -65.5167 235° Southwest 440 506 40,000 200 Climbing Gander Center
Thu 09:40:00 50.4500 -65.6667 229° Southwest 440 506 40,000  Level Gander Center
Thu 09:40:18 50.4333 -65.7167 242° Southwest 440 506 40,000  Level Moncton Center
Thu 09:41:18 50.3500 -65.8667 229° Southwest 430 495 40,000  Level Moncton Center
Thu 09:42:00 50.3167 -65.9667 242° Southwest 430 495 40,000  Level Gander Center
Thu 09:43:00 50.2333 -66.1167 229° Southwest 430 495 40,000  Level Gander Center
Thu 09:44:00 50.1667 -66.2500 232° Southwest 430 495 40,000  Level Gander Center
Thu 09:45:00 50.0833 -66.4000 229° Southwest 430 495 40,000  Level Gander Center
Thu 09:46:00 50.0167 -66.5333 232° Southwest 420 483 40,000  Level Gander Center
Thu 09:47:00 49.9500 -66.6833 235° Southwest 420 483 40,000  Level Gander Center
Thu 09:47:18 49.9167 -66.7167 213° Southwest 420 483 40,000  Level Moncton Center
Thu 09:48:07 49.8500 -66.8000 219° Southwest 420 483 40,000  Level Montreal Center
Thu 09:49:07 49.7667 -66.9167 222° Southwest 430 495 40,000  Level Montreal Center
Thu 09:50:07 49.6667 -67.0167 213° Southwest 430 495 40,000  Level Montreal Center
Thu 09:51:07 49.5833 -67.1333 222° Southwest 430 495 40,000  Level Montreal Center
Thu 09:52:07 49.4667 -67.2333 209° Southwest 430 495 40,000  Level Montreal Center
Thu 09:53:07 49.3667 -67.3500 217° Southwest 430 495 40,000  Level Montreal Center
Thu 09:54:07 49.2833 -67.4667 222° Southwest 430 495 40,000  Level Montreal Center
Thu 09:55:07 49.1833 -67.5667 213° Southwest 430 495 40,000  Level Montreal Center
Thu 09:56:07 49.0833 -67.6833 217° Southwest 430 495 40,000  Level Montreal Center
Thu 09:57:07 48.9833 -67.7833 213° Southwest 430 495 40,000  Level Montreal Center
Thu 09:58:07 48.9000 -67.9000 223° Southwest 430 495 40,000  Level Montreal Center
Thu 10:04:08 48.3140 -68.5730 223° Southwest 422 486 40,000  Level FlightAware ADS-B
Thu 10:04:48 48.2510 -68.6430 217° Southwest 419 482 40,000  Level FlightAware ADS-B
Thu 10:05:33 48.1820 -68.7190 216° Southwest 417 480 40,000  Level FlightAware ADS-B
Thu 10:06:13 48.1200 -68.7870 216° Southwest 415 478 40,000  Level FlightAware ADS-B
Thu 10:06:58 48.0500 -68.8630 216° Southwest 414 476 40,000  Level FlightAware ADS-B
Thu 10:07:38 47.9880 -68.9300 216° Southwest 412 474 40,000  Level FlightAware ADS-B
Thu 10:08:23 47.9200 -69.0040 216° Southwest 407 468 40,000  Level FlightAware ADS-B
Thu 10:09:03 47.8600 -69.0700 216° Southwest 403 464 40,000  Level FlightAware ADS-B
Thu 10:09:43 47.8000 -69.1330 215° Southwest 397 457 40,000  Level FlightAware ADS-B
Thu 10:10:28 47.7340 -69.2050 216° Southwest 395 455 40,000  Level FlightAware ADS-B
Thu 10:11:08 47.6750 -69.2690 216° Southwest 399 459 40,000  Level FlightAware ADS-B
Thu 10:11:53 47.6080 -69.3410 216° Southwest 405 466 40,000  Level FlightAware ADS-B
Thu 10:12:33 47.5470 -69.4050 215° Southwest 408 470 40,000  Level FlightAware ADS-B
Thu 10:13:18 47.4780 -69.4790 216° Southwest 410 472 40,000  Level FlightAware ADS-B
Thu 10:13:58 47.4170 -69.5450 216° Southwest 413 475 40,000  Level FlightAware ADS-B
Thu 10:14:38 47.3550 -69.6100 215° Southwest 415 478 40,000  Level FlightAware ADS-B
Thu 10:15:18 47.2940 -69.6750 216° Southwest 415 478 40,000  Level FlightAware ADS-B
Thu 10:16:03 47.2230 -69.7500 216° Southwest 416 479 40,000  Level FlightAware ADS-B
Thu 10:16:48 47.1530 -69.8230 215° Southwest 415 478 40,000  Level FlightAware ADS-B
Thu 10:17:28 47.0910 -69.8890 216° Southwest 414 476 40,000  Level FlightAware ADS-B
Thu 10:18:08 47.0290 -69.9540 216° Southwest 413 475 40,000  Level FlightAware ADS-B
Thu 10:18:53 46.9600 -70.0270 216° Southwest 413 475 40,000  Level FlightAware ADS-B
Thu 10:19:33 46.8980 -70.0910 215° Southwest 411 473 40,000  Level FlightAware ADS-B
Thu 10:20:18 46.8280 -70.1640 216° Southwest 410 472 40,000  Level FlightAware ADS-B
Thu 10:20:58 46.7660 -70.2280 215° Southwest 413 475 40,000  Level FlightAware ADS-B
Thu 10:21:43 46.6960 -70.3000 215° Southwest 423 487 40,000  Level FlightAware ADS-B
Thu 10:22:23 46.6320 -70.3670 216° Southwest 427 491 40,000  Level FlightAware ADS-B
Thu 10:23:03 46.5680 -70.4320 215° Southwest 428 493 40,000  Level FlightAware ADS-B
Thu 10:23:48 46.4950 -70.5070 215° Southwest 430 495 40,000  Level FlightAware ADS-B
Thu 10:24:28 46.4300 -70.5730 215° Southwest 432 497 40,000  Level FlightAware ADS-B
Thu 10:25:08 46.3650 -70.6400 215° Southwest 435 501 40,000  Level FlightAware ADS-B
Thu 10:25:53 46.2900 -70.7150 215° Southwest 437 503 40,000  Level FlightAware ADS-B
Thu 10:26:33 46.2250 -70.7820 216° Southwest 438 504 40,000  Level FlightAware ADS-B
Thu 10:27:18 46.1500 -70.8570 215° Southwest 440 506 40,000  Level FlightAware ADS-B
Thu 10:27:58 46.0840 -70.9240 215° Southwest 441 507 40,000  Level FlightAware ADS-B
Thu 10:28:38 46.0170 -70.9910 215° Southwest 444 511 40,000  Level FlightAware ADS-B
Thu 10:29:23 45.9410 -71.0660 214° Southwest 444 511 40,000  Level FlightAware ADS-B
Thu 10:30:03 45.8740 -71.1340 215° Southwest 441 507 40,000  Level FlightAware ADS-B
Thu 10:30:48 45.7990 -71.2080 215° Southwest 439 505 40,000  Level FlightAware ADS-B
Thu 10:31:28 45.7320 -71.2740 215° Southwest 434 499 40,000  Level FlightAware ADS-B
Thu 10:32:08 45.6670 -71.3390 215° Southwest 430 495 40,000  Level FlightAware ADS-B
Thu 10:32:53 45.5940 -71.4100 214° Southwest 432 497 40,000  Level FlightAware ADS-B
Thu 10:33:33 45.5280 -71.4750 215° Southwest 434 499 40,000  Level FlightAware ADS-B
Thu 10:34:13 45.4640 -71.5380 215° Southwest 436 502 40,000  Level FlightAware ADS-B
Thu 10:34:58 45.3880 -71.6110 214° Southwest 437 503 40,000  Level FlightAware ADS-B
Thu 10:35:38 45.3240 -71.6730 214° Southwest 438 504 40,000  Level FlightAware ADS-B
Thu 10:36:23 45.2460 -71.7490 214° Southwest 441 507 40,000  Level FlightAware ADS-B
Thu 10:37:03 45.1800 -71.8130 214° Southwest 444 511 40,000  Level FlightAware ADS-B
Thu 10:37:48 45.1060 -71.8830 214° Southwest 442 509 40,000  Level FlightAware ADS-B
Thu 10:38:28 45.0360 -71.9510 214° Southwest 443 510 40,000  Level FlightAware ADS-B
Thu 10:39:08 44.9670 -72.0160 214° Southwest 444 511 40,000  Level FlightAware ADS-B
Thu 10:39:53 44.8880 -72.0910 214° Southwest 444 511 40,000  Level FlightAware ADS-B
Thu 10:40:33 44.8200 -72.1560 214° Southwest 444 511 40,000  Level FlightAware ADS-B
Thu 10:41:18 44.7460 -72.2250 214° Southwest 444 511 40,000  Level FlightAware ADS-B
Thu 10:41:58 44.6780 -72.2890 214° Southwest 442 509 40,000  Level FlightAware ADS-B
Thu 10:42:38 44.6070 -72.3550 214° Southwest 441 507 40,000  Level FlightAware ADS-B
Thu 10:43:23 44.5330 -72.4250 214° Southwest 439 505 40,000  Level FlightAware ADS-B
Thu 10:44:03 44.4670 -72.4860 213° Southwest 437 503 40,000  Level FlightAware ADS-B
Thu 10:44:43 44.4010 -72.5470 213° Southwest 435 501 40,000  Level FlightAware ADS-B
Thu 10:45:28 44.3270 -72.6150 213° Southwest 432 497 40,000  Level FlightAware ADS-B
Thu 10:46:08 44.2600 -72.6770 214° Southwest 431 496 40,000 -141 Level FlightAware ADS-B
Thu 10:46:53 44.1800 -72.7500 213° Southwest 426 490 39,800 -494 Descending FlightAware ADS-B
Thu 10:47:33 44.1160 -72.8080 213° Southwest 411 473 39,300 -776 Descending FlightAware ADS-B
Thu 10:48:18 44.0470 -72.8710 213° Southwest 393 452 38,700 -1,200 Descending FlightAware ADS-B
Thu 10:48:58 43.9870 -72.9260 213° Southwest 393 452 37,600 -1,694 Descending FlightAware ADS-B
Thu 10:49:43 43.9190 -72.9880 213° Southwest 395 455 36,300 -1,976 Descending FlightAware ADS-B
Thu 10:50:23 43.8550 -73.0450 213° Southwest 403 464 34,800 -2,175 Descending FlightAware ADS-B
Thu 10:51:03 43.7920 -73.1020 213° Southwest 412 474 33,400 -1,835 Descending FlightAware ADS-B
Thu 10:51:48 43.7210 -73.1650 213° Southwest 418 481 32,200 -1,280 Descending FlightAware ADS-B
Thu 10:52:18 43.6760 -73.2050 213° Southwest 419 482 31,800 -565 Descending FlightAware ADS-B
Thu 10:53:13 43.5920 -73.2790 213° Southwest 420 483 31,400 -1,263 Descending FlightAware ADS-B
Thu 10:53:53 43.5150 -73.3480 213° Southwest 427 491 29,800 -1,800 Descending FlightAware ADS-B
Thu 10:54:33 43.4480 -73.4070 213° Southwest 429 494 29,000 -565 Descending FlightAware ADS-B
Thu 10:55:18 43.3820 -73.4640 212° Southwest 428 493 29,000  Level FlightAware ADS-B
Thu 10:55:58 43.3250 -73.5140 213° Southwest 428 493 29,000  Level FlightAware ADS-B
Thu 10:56:38 43.2680 -73.5630 212° Southwest 428 493 29,000  Level FlightAware ADS-B
Thu 10:57:18 43.2110 -73.6120 212° Southwest 428 493 29,000 -5,600 Level FlightAware ADS-B
Thu 10:57:38 43.1320 -73.6550 202° Southwest 426 490 23,400 -5,600 Descending FlightAware ADS-B
Thu 10:58:33 43.0340 -73.6950 197° South 406 467 22,000 -884 Descending FlightAware ADS-B
Thu 10:59:13 42.9620 -73.7260 197° South 411 473 22,000  Level FlightAware ADS-B
Thu 10:59:58 42.8920 -73.7930 215° Southwest 390 449 22,000  Level FlightAware ADS-B
Thu 11:00:38 42.8620 -73.8810 245° Southwest 382 440 22,000  Level FlightAware ADS-B
Thu 11:01:23 42.8220 -73.9650 237° Southwest 372 428 22,000  Level FlightAware ADS-B
Thu 11:02:03 42.7560 -74.0010 202° Southwest 405 466 22,000 -600 Level FlightAware ADS-B
Thu 11:02:43 42.6790 -74.0070 183° South 402 463 21,200 -1,624 Descending FlightAware ADS-B
Thu 11:03:28 42.6020 -74.0120 183° South 392 451 19,700 -1,624 Descending FlightAware ADS-B
Thu 11:04:08 42.5260 -74.0180 183° South 363 418 18,900 -706 Descending FlightAware ADS-B
Thu 11:04:53 42.4590 -74.0230 183° South 361 415 18,700 -141 Descending FlightAware ADS-B
Thu 11:05:33 42.4030 -74.0270 183° South 361 415 18,700  Level FlightAware ADS-B
Thu 11:06:13 42.3460 -74.0310 183° South 361 415 18,700  Level FlightAware ADS-B
Thu 11:06:53 42.2890 -74.0350 183° South 361 415 18,700  Level FlightAware ADS-B
Thu 11:07:33 42.2330 -74.0390 183° South 361 415 18,700  Level FlightAware ADS-B
Thu 11:08:13 42.1760 -74.0430 183° South 361 415 18,700 -2,516 Level FlightAware ADS-B
Thu 11:08:35 42.1303 -73.9097 183° South 307 353 16,100 -1,103 Descending Boston Center
Thu 11:14:23 41.6970 -74.2560 183° South 305 351 11,900 -779 Descending FlightAware ADS-B
Thu 11:15:08 41.6400 -74.2940 206° Southwest 291 335 11,000 -1,200 Descending FlightAware ADS-B
Thu 11:15:38 41.6070 -74.3080 198° South 285 328 10,400 -424 Descending FlightAware ADS-B
Thu 11:16:33 41.5450 -74.3340 197° South 285 328 10,400  Level FlightAware ADS-B
Thu 11:17:13 41.5020 -74.3510 196° South 285 328 10,400 -609 Level FlightAware ADS-B
Thu 11:22:08 41.1520 -74.5000 198° South 262 302 7,000 -638 Descending FlightAware ADS-B
Thu 11:22:33 41.1270 -74.5110 198° South 262 302 7,000  Level FlightAware ADS-B
Thu 11:23:03 41.0930 -74.5250 197° South 262 302 7,000 -109 Level FlightAware ADS-B
Thu 11:23:28 41.0610 -74.5400 199° South 257 296 6,900  Descending FlightAware ADS-B
Thu 11:23:58 41.0300 -74.5620 208° Southwest 253 291 7,000 167 Climbing FlightAware ADS-B
Thu 11:24:04 41.0214 -74.5690 212° Southwest 254 292 7,000 -261 Level FlightAware ADS-B
Thu 11:24:21 41.0037 -74.5831 211° Southwest 254 292 6,900 -490 Descending FlightAware ADS-B
Thu 11:24:53 40.9730 -74.6060 209° Southwest 255 293 6,600 -766 Descending FlightAware ADS-B
Thu 11:25:08 40.9550 -74.6100 190° South 266 306 6,300 -1,250 Descending FlightAware ADS-B
Thu 11:25:17 40.9417 -74.6097 179° South 267 307 6,100 -800 Descending FlightAware ADS-B
Thu 11:25:38 40.9165 -74.6090 179° South 266 306 5,900 -150 Descending FlightAware ADS-B
Thu 11:25:57 40.8921 -74.6083 179° South 269 310 6,000 162 Climbing FlightAware ADS-B
Thu 11:26:15 40.8695 -74.6078 179° South 268 308 6,000 -188 Level FlightAware ADS-B
Thu 11:26:29 40.8527 -74.6044 171° South 276 318 5,900 -333 Descending FlightAware ADS-B
Thu 11:26:33 40.8475 -74.6015 157° South 284 327 5,900 545 Level FlightAware ADS-B
Thu 11:26:40 40.8401 -74.5955 148° Southeast 289 333 6,000 200 Climbing FlightAware ADS-B
Thu 11:27:03 40.8161 -74.5696 141° Southeast 293 337 6,000  Level FlightAware ADS-B
Thu 11:27:26 40.7891 -74.5508 152° Southeast 291 335 6,000 -254 Level FlightAware ADS-B
Thu 11:28:14 40.7296 -74.5494 179° South 266 306 5,700 -690 Descending FlightAware ADS-B
Thu 11:28:53 40.6830 -74.5500 181° South 265 305 5,000 -750 Descending FlightAware ADS-B
Thu 11:29:18 40.6560 -74.5500 180° South 267 307 4,900  Descending FlightAware ADS-B
Thu 11:29:48 40.6180 -74.5510 181° South 267 307 5,000 136 Climbing FlightAware ADS-B
Thu 11:30:02 40.5970 -74.5520 182° South 266 306 5,000  Level FlightAware ADS-B
Thu 11:30:18 40.5778 -74.5525 181° South 267 307 5,000 -240 Level FlightAware ADS-B
Thu 11:30:27 40.5661 -74.5519 178° South 271 312 4,900 -750 Descending FlightAware ADS-B
Thu 11:30:34 40.5579 -74.5490 165° South 276 318 4,800 -545 Descending FlightAware ADS-B
Thu 11:30:38 40.5530 -74.5464 158° South 277 319 4,800 -545 Level FlightAware ADS-B
Thu 11:30:45 40.5444 -74.5409 154° Southeast 278 320 4,700 -800 Descending FlightAware ADS-B
Thu 11:30:53 40.5361 -74.5349 151° Southeast 278 320 4,600 -1,250 Descending FlightAware ADS-B
Thu 11:31:09 40.5183 -74.5222 152° Southeast 276 318 4,200 -1,059 Descending FlightAware ADS-B
Thu 11:31:27 40.4978 -74.5086 153° Southeast 275 316 4,000 -500 Descending FlightAware ADS-B
Thu 11:31:45 40.4781 -74.4964 155° Southeast 255 293 3,900 -182 Descending FlightAware ADS-B
Thu 11:32:00 40.4628 -74.4870 155° Southeast 238 274 3,900 250 Level FlightAware ADS-B
Thu 11:32:09 40.4539 -74.4808 152° Southeast 230 265 4,000 333 Climbing FlightAware ADS-B
Thu 11:32:18 40.4469 -74.4720 136° Southeast 230 265 4,000  Level FlightAware ADS-B
Thu 11:32:23 40.4441 -74.4662 122° Southeast 233 268 4,000  Level FlightAware ADS-B
Thu 11:32:28 40.4422 -74.4595 110° East 236 272 4,000  Level FlightAware ADS-B
Thu 11:32:36 40.4405 -74.4485 101° East 239 275 4,000 -250 Level FlightAware ADS-B
Thu 11:32:52 40.4388 -74.4259 96° East 235 270 3,900 -585 Descending FlightAware ADS-B
Thu 11:33:17 40.4365 -74.3912 95° East 230 265 3,600 -923 Descending FlightAware ADS-B
Thu 11:33:31 40.4409 -74.3716 74° East 229 264 3,300 -1,000 Descending FlightAware ADS-B
Thu 11:33:41 40.4470 -74.3611 53° Northeast 227 261 3,200 -923 Descending FlightAware ADS-B
Thu 11:33:57 40.4587 -74.3444 47° Northeast 227 261 2,900 -245 Descending FlightAware ADS-B
Thu 11:34:30 40.4826 -74.3109 47° Northeast 228 262 3,000 109 Climbing FlightAware ADS-B
Thu 11:34:52 40.4984 -74.2891 46° Northeast 226 260 3,000  Level FlightAware ADS-B
Thu 11:35:00 40.5045 -74.2823 40° Northeast 225 259 3,000  Level FlightAware ADS-B
Thu 11:35:13 40.5167 -74.2733 29° Northeast 226 260 3,000 -194 Level FlightAware ADS-B
Thu 11:35:31 40.5336 -74.2629 25° Northeast 226 260 2,900 -529 Descending FlightAware ADS-B
Thu 11:35:47 40.5485 -74.2538 25° Northeast 228 262 2,700 -1,021 Descending FlightAware ADS-B
Thu 11:36:18 40.5760 -74.2370 25° Northeast 206 237 2,100 -1,231 Descending FlightAware ADS-B
Thu 11:36:26 40.5837 -74.2319 27° Northeast 198 228 1,900 -1,135 Descending FlightAware ADS-B
Thu 11:36:55 40.6053 -74.2187 25° Northeast 167 192 1,400 -980 Descending FlightAware ADS-B
Thu 11:37:15 40.6183 -74.2106 25° Northeast 150 173 1,100 -750 Descending FlightAware ADS-B
Thu 11:37:27 40.6256 -74.2061 25° Northeast 139 160 1,000 -667 Descending FlightAware ADS-B
Thu 11:37:51 40.6386 -74.1982 25° Northeast 131 151 700 -800 Descending FlightAware ADS-B
Thu 11:38:12 40.6496 -74.1915 25° Northeast 120 138 400 -750 Descending FlightAware ADS-B
Thu 11:38:31 40.6592 -74.1857 25° Northeast 123 142 200 -632 Descending FlightAware ADS-B

Login

Don't have an account? Register now (free) for customized features, flight alerts, and more!